Time;durP1;ratioP1;P1;durP2;ratioP2;P2;SDS_P1;SDS_P2;PMS_P1;PMS_P2;Temp;Humidity;BMP_temperature;BMP_pressure;BME280_temperature;BME280_humidity;BME280_pressure;Samples;Min_cycle;Max_cycle;Signal;HPM_P1;HPM_P2
2023/11/11 00:01:05;;;;;;;15.10;13.60;;;;;;;5.97;92.88;97155.44;106345;1284;61097;-90
2023/11/11 00:03:34;;;;;;;17.10;13.70;;;;;;;5.95;93.03;97148.48;106222;1284;59427;-89
2023/11/11 00:06:02;;;;;;;15.10;13.30;;;;;;;5.93;93.17;97147.70;106592;1284;74678;-91
2023/11/11 00:08:34;;;;;;;14.60;13.10;;;;;;;5.91;93.25;97152.47;106525;1284;75776;-89
2023/11/11 00:11:03;;;;;;;15.00;13.40;;;;;;;5.90;93.32;97151.31;106425;1284;72749;-90
2023/11/11 00:13:30;;;;;;;21.80;13.80;;;;;;;5.90;93.52;97153.30;106344;1284;61841;-90
2023/11/11 00:15:57;;;;;;;15.10;13.10;;;;;;;5.90;93.57;97152.06;106083;1284;59184;-89
2023/11/11 00:18:25;;;;;;;14.70;13.10;;;;;;;5.90;93.60;97151.45;106381;1284;73632;-90
2023/11/11 00:20:53;;;;;;;16.30;14.60;;;;;;;5.92;93.52;97151.17;106275;1285;75594;-91
2023/11/11 00:23:20;;;;;;;15.40;13.70;;;;;;;5.93;93.78;97143.12;106394;1284;71666;-90
2023/11/11 00:25:48;;;;;;;16.20;13.70;;;;;;;5.93;93.77;97139.54;106157;1288;61224;-91
2023/11/11 00:28:16;;;;;;;14.90;13.40;;;;;;;5.93;93.72;97141.64;106399;1284;60299;-89
2023/11/11 00:30:46;;;;;;;15.50;13.00;;;;;;;5.94;93.87;97137.66;106536;1285;73628;-89
2023/11/11 00:33:14;;;;;;;15.50;13.30;;;;;;;5.95;93.93;97126.77;106415;1285;76304;-90
2023/11/11 00:35:41;;;;;;;19.00;14.10;;;;;;;5.97;93.73;97118.70;106362;1285;72433;-90
2023/11/11 00:38:09;;;;;;;16.90;14.20;;;;;;;5.98;93.70;97122.19;106817;1284;60206;-90
2023/11/11 00:40:40;;;;;;;16.50;13.60;;;;;;;5.99;93.77;97122.60;106707;1284;59769;-89
2023/11/11 00:43:08;;;;;;;18.50;14.20;;;;;;;5.99;93.68;97118.70;106381;1284;74219;-90
2023/11/11 00:45:36;;;;;;;21.60;14.00;;;;;;;6.00;93.75;97121.49;106366;1284;73018;-90
2023/11/11 00:48:04;;;;;;;19.50;14.90;;;;;;;6.00;93.66;97120.62;106591;1284;72742;-90
2023/11/11 00:50:32;;;;;;;19.00;15.70;;;;;;;5.99;93.74;97113.39;106621;1284;59740;-89
2023/11/11 00:53:00;;;;;;;20.60;15.70;;;;;;;5.97;93.77;97109.41;106428;1286;59153;-90
2023/11/11 00:55:27;;;;;;;17.40;15.50;;;;;;;5.97;93.80;97109.82;106321;1284;73848;-89
2023/11/11 00:57:54;;;;;;;16.40;13.60;;;;;;;5.95;94.04;97112.23;106515;1285;73087;-90
2023/11/11 01:00:27;;;;;;;16.10;13.70;;;;;;;5.93;94.18;97113.39;106573;1284;72723;-89
2023/11/11 01:02:54;;;;;;;18.10;12.80;;;;;;;5.92;94.61;97110.14;106179;1284;62069;-89
2023/11/11 01:05:22;;;;;;;16.30;13.30;;;;;;;5.90;94.80;97104.23;106318;1285;59404;-90
2023/11/11 01:07:49;;;;;;;15.60;13.60;;;;;;;5.90;94.83;97102.84;106364;1284;73859;-89
2023/11/11 01:10:18;;;;;;;14.50;13.10;;;;;;;5.89;94.93;97097.57;106569;1284;75504;-90
2023/11/11 01:12:45;;;;;;;15.10;12.90;;;;;;;5.88;95.26;97093.39;106359;1285;73353;-89
2023/11/11 01:15:13;;;;;;;18.60;13.40;;;;;;;5.87;95.39;97095.77;106238;1285;61521;-90
2023/11/11 01:17:40;;;;;;;20.50;14.60;;;;;;;5.85;95.41;97094.98;106428;1284;59079;-90
2023/11/11 01:20:08;;;;;;;15.70;13.40;;;;;;;5.83;95.63;97094.95;106554;1285;73926;-90
2023/11/11 01:22:35;;;;;;;15.30;13.80;;;;;;;5.81;95.91;97094.89;106766;1284;74040;-91
2023/11/11 01:25:03;;;;;;;15.80;13.40;;;;;;;5.80;96.13;97093.17;106759;1285;71198;-90
2023/11/11 01:27:31;;;;;;;15.40;13.80;;;;;;;5.79;96.29;97087.20;106645;1284;60217;-88
2023/11/11 01:29:59;;;;;;;16.00;14.30;;;;;;;5.79;96.52;97086.68;106714;1285;59172;-88
2023/11/11 01:32:26;;;;;;;19.50;12.20;;;;;;;5.79;96.54;97076.70;106721;1284;72506;-88
2023/11/11 01:34:55;;;;;;;15.00;12.60;;;;;;;5.79;96.84;97075.13;106848;1284;72605;-89
2023/11/11 01:37:22;;;;;;;15.00;13.50;;;;;;;5.79;96.94;97074.06;106793;1284;71709;-89
2023/11/11 01:39:51;;;;;;;14.70;12.40;;;;;;;5.78;97.12;97063.64;106443;1285;62922;-90
2023/11/11 01:42:19;;;;;;;15.00;13.40;;;;;;;5.78;97.15;97060.61;106333;1284;60091;-89
2023/11/11 01:44:46;;;;;;;18.00;13.20;;;;;;;5.79;97.12;97057.35;106524;1284;73162;-89
2023/11/11 01:47:13;;;;;;;18.30;12.70;;;;;;;5.79;97.37;97053.98;106715;1285;73892;-89
2023/11/11 01:49:41;;;;;;;16.50;13.80;;;;;;;5.81;97.60;97050.36;106892;1285;71327;-89
2023/11/11 01:52:09;;;;;;;16.70;13.60;;;;;;;5.83;97.79;97037.97;106783;1285;59253;-89
2023/11/11 01:54:37;;;;;;;16.50;14.60;;;;;;;5.84;97.56;97039.66;106666;1285;59083;-90
2023/11/11 01:57:04;;;;;;;15.30;12.60;;;;;;;5.85;97.52;97033.50;106384;1285;73744;-89
2023/11/11 01:59:35;;;;;;;18.50;13.10;;;;;;;5.86;97.34;97030.05;106125;1284;73014;-88
2023/11/11 02:02:02;;;;;;;14.00;12.60;;;;;;;5.88;97.23;97037.04;106725;1285;72518;-90
2023/11/11 02:04:30;;;;;;;14.50;12.50;;;;;;;5.90;97.05;97042.80;106873;1284;60159;-89
2023/11/11 02:06:59;;;;;;;16.60;13.70;;;;;;;5.90;97.14;97029.94;106539;1285;59279;-89
2023/11/11 02:09:27;;;;;;;15.00;13.50;;;;;;;5.91;97.25;97027.92;106354;1285;72313;-91
2023/11/11 02:11:55;;;;;;;15.00;13.10;;;;;;;5.92;97.27;97026.97;106559;1284;73281;-90
2023/11/11 02:14:24;;;;;;;14.20;12.60;;;;;;;5.93;97.70;97027.95;106295;1284;72709;-89
2023/11/11 02:16:52;;;;;;;14.90;12.90;;;;;;;5.95;97.78;97020.73;106154;1285;59485;-87
2023/11/11 02:19:19;;;;;;;15.10;11.50;;;;;;;5.95;97.78;97019.31;106581;1284;59092;-88
2023/11/11 02:21:47;;;;;;;12.30;11.10;;;;;;;5.96;97.72;97022.24;106625;1284;72761;-89
2023/11/11 02:24:16;;;;;;;13.20;11.80;;;;;;;5.98;97.51;97017.36;106640;1284;72820;-88
2023/11/11 02:26:44;;;;;;;13.40;12.00;;;;;;;5.98;97.33;97012.70;106339;1284;72670;-89
2023/11/11 02:29:11;;;;;;;13.20;11.90;;;;;;;5.97;97.21;97007.44;106535;1284;61089;-90
2023/11/11 02:31:38;;;;;;;15.60;13.30;;;;;;;5.97;97.09;97004.09;106760;1284;59100;-90
2023/11/11 02:34:05;;;;;;;13.60;12.20;;;;;;;5.97;97.30;97001.95;106739;1284;72620;-89
2023/11/11 02:36:35;;;;;;;13.30;12.00;;;;;;;5.98;97.18;97001.02;106713;1285;74407;-90
2023/11/11 02:39:04;;;;;;;14.20;11.90;;;;;;;5.98;97.20;96998.49;106703;1285;71464;-89
2023/11/11 02:41:31;;;;;;;13.70;11.50;;;;;;;5.99;97.10;96998.98;106732;1284;60226;-91
2023/11/11 02:43:59;;;;;;;12.90;11.40;;;;;;;6.01;97.19;96999.73;106410;1284;60546;-90
2023/11/11 02:46:26;;;;;;;13.40;12.00;;;;;;;6.01;97.16;96997.56;106612;1285;72687;-90
2023/11/11 02:48:53;;;;;;;12.80;11.60;;;;;;;6.02;97.04;96999.44;106628;1284;75572;-90
2023/11/11 02:51:20;;;;;;;13.30;11.20;;;;;;;6.02;96.97;96994.24;106774;1284;71351;-90
2023/11/11 02:53:47;;;;;;;13.50;12.10;;;;;;;6.04;97.19;96988.66;106834;1284;59440;-89
2023/11/11 02:56:14;;;;;;;12.60;11.00;;;;;;;6.04;97.10;96987.52;106686;1284;59039;-89
2023/11/11 02:58:42;;;;;;;13.30;11.90;;;;;;;6.05;97.02;96980.73;106888;1285;72689;-90
2023/11/11 03:01:09;;;;;;;12.80;11.50;;;;;;;6.06;96.87;96984.21;106581;1284;73586;-91
2023/11/11 03:03:36;;;;;;;13.30;11.90;;;;;;;6.06;96.94;96986.71;106742;1284;71809;-91
2023/11/11 03:06:05;;;;;;;13.20;12.00;;;;;;;6.06;96.89;96984.21;106723;1284;59874;-89
2023/11/11 03:08:36;;;;;;;13.70;12.00;;;;;;;6.06;97.03;96984.91;106643;1284;59652;-90
2023/11/11 03:11:04;;;;;;;13.90;11.30;;;;;;;6.07;96.88;96982.02;106546;1284;73765;-91
2023/11/11 03:13:32;;;;;;;13.10;11.90;;;;;;;6.08;97.08;96978.75;106253;1286;73477;-90
2023/11/11 03:15:59;;;;;;;15.20;11.50;;;;;;;6.09;97.04;96979.17;106251;1285;72557;-90
2023/11/11 03:18:27;;;;;;;16.20;13.50;;;;;;;6.09;96.77;96981.68;106583;1284;60892;-90
2023/11/11 03:20:54;;;;;;;15.10;12.80;;;;;;;6.08;96.62;96978.92;106623;1284;60278;-90
2023/11/11 03:23:21;;;;;;;13.60;11.70;;;;;;;6.07;96.74;96977.89;106469;1284;74351;-90
2023/11/11 03:25:49;;;;;;;12.70;11.50;;;;;;;6.08;96.98;96977.34;106546;1284;72750;-90
2023/11/11 03:28:16;;;;;;;13.80;11.90;;;;;;;6.08;97.21;96971.07;106254;1284;73010;-89
2023/11/11 03:30:43;;;;;;;13.30;12.00;;;;;;;6.08;97.47;96970.91;106559;1284;60992;-89
2023/11/11 03:33:10;;;;;;;15.20;11.90;;;;;;;6.07;97.60;96970.44;106299;1284;60062;-89
2023/11/11 03:35:38;;;;;;;14.10;12.70;;;;;;;6.06;97.56;96972.48;106426;1284;74512;-90
2023/11/11 03:38:09;;;;;;;13.50;12.20;;;;;;;6.05;97.65;96971.29;106284;1285;73009;-88
2023/11/11 03:40:36;;;;;;;16.10;12.10;;;;;;;6.04;97.98;96967.86;106500;1284;70361;-90
2023/11/11 03:43:03;;;;;;;15.80;13.20;;;;;;;6.04;98.09;96968.77;106558;1284;60156;-90
2023/11/11 03:45:32;;;;;;;14.60;13.10;;;;;;;6.03;98.60;96965.42;106554;1284;60057;-89
2023/11/11 03:48:00;;;;;;;17.10;15.30;;;;;;;6.04;98.86;96968.56;106496;1285;73986;-90
2023/11/11 03:50:27;;;;;;;15.70;14.30;;;;;;;6.05;99.26;96970.44;106616;1284;73311;-90
2023/11/11 03:52:54;;;;;;;17.70;14.20;;;;;;;6.05;99.62;96958.55;106476;1285;71236;-88
2023/11/11 03:55:22;;;;;;;16.30;14.80;;;;;;;6.04;99.76;96970.69;106382;1285;60240;-89
2023/11/11 03:57:49;;;;;;;17.90;14.90;;;;;;;6.03;100.00;96968.66;106741;1284;60501;-89
2023/11/11 04:00:19;;;;;;;18.30;15.90;;;;;;;6.01;100.00;96969.52;106825;1288;73830;-89
2023/11/11 04:02:47;;;;;;;16.90;15.20;;;;;;;5.98;100.00;96966.88;106634;1285;75079;-89
2023/11/11 04:05:15;;;;;;;16.00;14.30;;;;;;;5.96;100.00;96965.06;106680;1285;72562;-89
2023/11/11 04:07:42;;;;;;;16.80;13.80;;;;;;;5.95;100.00;96965.61;106376;1284;59689;-91
2023/11/11 04:10:09;;;;;;;17.10;13.90;;;;;;;5.95;100.00;96960.29;106605;1285;59355;-90
2023/11/11 04:12:37;;;;;;;15.10;12.90;;;;;;;5.95;100.00;96957.11;106538;1285;73712;-89
2023/11/11 04:15:04;;;;;;;15.50;14.00;;;;;;;5.95;100.00;96958.67;106863;1284;74087;-89
2023/11/11 04:17:32;;;;;;;16.70;14.90;;;;;;;5.95;100.00;96953.19;106825;1285;71497;-89
2023/11/11 04:19:59;;;;;;;16.30;14.20;;;;;;;5.95;100.00;96955.54;106869;1285;60025;-89
2023/11/11 04:22:26;;;;;;;17.20;15.40;;;;;;;5.94;100.00;96958.44;106853;1286;59106;-88
2023/11/11 04:24:54;;;;;;;17.10;14.90;;;;;;;5.94;100.00;96960.58;106569;1288;72001;-89
2023/11/11 04:27:21;;;;;;;16.20;14.50;;;;;;;5.92;100.00;96954.16;106585;1285;74023;-89
2023/11/11 04:29:48;;;;;;;18.70;15.80;;;;;;;5.90;100.00;96958.70;106702;1285;71449;-89
2023/11/11 04:32:15;;;;;;;17.10;15.40;;;;;;;5.89;100.00;96956.89;106752;1284;61501;-88
2023/11/11 04:34:43;;;;;;;18.10;15.70;;;;;;;5.88;100.00;96954.11;106576;1285;59511;-90
2023/11/11 04:37:10;;;;;;;19.40;15.70;;;;;;;5.86;100.00;96951.41;106626;1284;72738;-89
2023/11/11 04:39:40;;;;;;;17.40;15.60;;;;;;;5.84;100.00;96952.05;106748;1284;72047;-88
2023/11/11 04:42:10;;;;;;;22.70;15.70;;;;;;;5.83;100.00;96947.16;106642;1285;71638;-89
2023/11/11 04:44:38;;;;;;;15.80;14.20;;;;;;;5.82;100.00;96947.23;106248;1284;60047;-89
2023/11/11 04:47:07;;;;;;;17.90;15.90;;;;;;;5.83;100.00;96944.52;106506;1284;59988;-89
2023/11/11 04:49:34;;;;;;;18.60;14.10;;;;;;;5.83;100.00;96941.11;106530;1285;72741;-90
2023/11/11 04:52:02;;;;;;;15.20;13.70;;;;;;;5.85;100.00;96935.86;106500;1284;72617;-90
2023/11/11 04:54:29;;;;;;;18.90;14.90;;;;;;;5.86;100.00;96926.91;106225;1284;73679;-89
2023/11/11 04:56:58;;;;;;;21.60;14.00;;;;;;;5.87;100.00;96928.91;106288;1285;257732;-89
2023/11/11 04:59:29;;;;;;;18.70;14.80;;;;;;;5.89;100.00;96920.45;106333;1284;59278;-90
2023/11/11 05:01:56;;;;;;;18.70;16.00;;;;;;;5.91;100.00;96920.30;106539;1285;74038;-91
2023/11/11 05:04:24;;;;;;;17.40;14.70;;;;;;;5.93;100.00;96922.98;106412;1285;75488;-90
2023/11/11 05:06:51;;;;;;;18.50;15.20;;;;;;;5.95;100.00;96921.23;106507;1284;73898;-90
2023/11/11 05:09:22;;;;;;;15.90;14.30;;;;;;;5.96;100.00;96922.73;106439;1284;59653;-91
2023/11/11 05:11:49;;;;;;;16.70;14.90;;;;;;;5.99;100.00;96927.55;106568;1284;59112;-91
2023/11/11 05:14:18;;;;;;;18.20;15.90;;;;;;;6.00;100.00;96931.20;106412;1284;72911;-91
2023/11/11 05:16:50;;;;;;;19.40;14.90;;;;;;;6.02;100.00;96931.05;106277;1287;75686;-91
2023/11/11 05:19:18;;;;;;;16.50;14.80;;;;;;;6.03;100.00;96925.08;106325;1285;71740;-90
2023/11/11 05:21:45;;;;;;;17.80;15.20;;;;;;;6.04;100.00;96925.88;106360;1285;60920;-90
2023/11/11 05:24:13;;;;;;;17.30;15.50;;;;;;;6.06;100.00;96925.60;106496;1284;59033;-90
2023/11/11 05:26:41;;;;;;;16.90;15.00;;;;;;;6.06;100.00;96929.50;106550;1284;73067;-90
2023/11/11 05:29:10;;;;;;;20.80;16.30;;;;;;;6.05;100.00;96926.68;106438;1284;73747;-92
2023/11/11 05:31:37;;;;;;;22.30;17.00;;;;;;;6.05;100.00;96934.55;106280;1285;72580;-90
2023/11/11 05:34:04;;;;;;;20.00;16.00;;;;;;;6.05;100.00;96931.88;106299;1284;61099;-90
2023/11/11 05:36:33;;;;;;;18.60;16.60;;;;;;;6.06;100.00;96924.31;106341;1284;59346;-89
2023/11/11 05:39:02;;;;;;;20.20;17.00;;;;;;;6.07;100.00;96920.36;106457;1285;74319;-91
2023/11/11 05:41:31;;;;;;;18.50;16.30;;;;;;;6.08;100.00;96923.80;106088;1285;74304;-91
2023/11/11 05:43:58;;;;;;;17.10;15.50;;;;;;;6.11;100.00;96928.77;106273;1284;71860;-92
2023/11/11 05:46:26;;;;;;;19.80;16.40;;;;;;;6.12;100.00;96932.41;106497;1285;62022;-92
2023/11/11 05:48:53;;;;;;;20.00;16.90;;;;;;;6.13;100.00;96928.95;106369;1285;59238;-92
2023/11/11 05:51:22;;;;;;;25.80;18.70;;;;;;;6.14;100.00;96926.05;106326;1285;74283;-91
2023/11/11 05:53:49;;;;;;;21.30;16.80;;;;;;;6.13;100.00;96924.30;106335;1286;73208;-90
2023/11/11 05:56:17;;;;;;;17.60;14.70;;;;;;;6.12;100.00;96925.30;106318;1285;72054;-90
2023/11/11 05:58:44;;;;;;;17.80;15.90;;;;;;;6.11;100.00;96927.02;106197;1291;61332;-90
2023/11/11 06:01:11;;;;;;;25.00;18.60;;;;;;;6.09;100.00;96928.75;106365;1284;60376;-91
2023/11/11 06:03:39;;;;;;;26.20;18.30;;;;;;;6.08;100.00;96932.17;106381;1285;74999;-91
2023/11/11 06:06:06;;;;;;;24.50;17.20;;;;;;;6.06;100.00;96931.06;106456;1285;73185;-89
2023/11/11 06:08:34;;;;;;;23.20;17.10;;;;;;;6.05;100.00;96934.88;106806;1285;71146;-88
2023/11/11 06:11:02;;;;;;;20.30;15.80;;;;;;;6.05;100.00;96934.39;106748;1285;59701;-89
2023/11/11 06:13:29;;;;;;;21.20;16.70;;;;;;;6.05;100.00;96936.14;106680;1285;60464;-89
2023/11/11 06:15:57;;;;;;;21.70;17.10;;;;;;;6.05;100.00;96932.73;106714;1285;72743;-91
2023/11/11 06:18:24;;;;;;;20.30;18.10;;;;;;;6.07;100.00;96932.77;106437;1285;73273;-89
2023/11/11 06:20:52;;;;;;;22.00;16.70;;;;;;;6.09;100.00;96925.70;106513;1285;71392;-92
2023/11/11 06:23:19;;;;;;;25.30;19.80;;;;;;;6.11;100.00;96923.98;106523;1284;60795;-89
2023/11/11 06:25:49;;;;;;;29.80;20.20;;;;;;;6.11;100.00;96921.48;106466;1284;59935;-89
2023/11/11 06:28:16;;;;;;;26.10;17.50;;;;;;;6.11;100.00;96920.08;106626;1285;74013;-89
2023/11/11 06:30:43;;;;;;;22.00;17.50;;;;;;;6.11;100.00;96923.02;106660;1285;74399;-89
2023/11/11 06:33:11;;;;;;;20.80;18.20;;;;;;;6.13;100.00;96922.05;106642;1285;73653;-91
2023/11/11 06:35:38;;;;;;;22.60;19.70;;;;;;;6.13;100.00;96920.58;106463;1290;59961;-89
2023/11/11 06:38:06;;;;;;;26.70;22.00;;;;;;;6.13;100.00;96917.91;106799;1284;59135;-88
2023/11/11 06:40:34;;;;;;;24.10;20.10;;;;;;;6.14;100.00;96913.59;106742;1286;72510;-89
2023/11/11 06:43:01;;;;;;;28.80;19.60;;;;;;;6.15;100.00;96913.70;106562;1285;74612;-88
2023/11/11 06:45:31;;;;;;;23.30;18.50;;;;;;;6.16;100.00;96916.33;106632;1285;71997;-89
2023/11/11 06:47:59;;;;;;;30.70;22.00;;;;;;;6.16;100.00;96912.59;106340;1285;60124;-89
2023/11/11 06:50:27;;;;;;;18.70;16.90;;;;;;;6.17;100.00;96914.67;106482;1284;62531;-90
2023/11/11 06:52:54;;;;;;;20.90;16.70;;;;;;;6.17;100.00;96915.17;106865;1284;72425;-90
2023/11/11 06:55:21;;;;;;;21.80;17.70;;;;;;;6.18;100.00;96919.01;106575;1286;72459;-90
2023/11/11 06:57:49;;;;;;;24.00;19.50;;;;;;;6.20;100.00;96918.71;106583;1284;72702;-91
2023/11/11 07:00:20;;;;;;;20.10;17.50;;;;;;;6.23;100.00;96912.06;106407;1285;60163;-89
2023/11/11 07:02:48;;;;;;;23.30;16.10;;;;;;;6.25;100.00;96915.26;106441;1284;60165;-90
2023/11/11 07:05:15;;;;;;;18.40;16.50;;;;;;;6.27;100.00;96916.52;106237;1284;74086;-90
2023/11/11 07:07:46;;;;;;;23.40;15.90;;;;;;;6.29;100.00;96911.75;106526;1284;73715;-89
2023/11/11 07:10:13;;;;;;;20.70;16.60;;;;;;;6.32;100.00;96908.84;106269;1284;73029;-89
2023/11/11 07:12:41;;;;;;;19.30;17.10;;;;;;;6.35;100.00;96900.48;106066;1286;61909;-90
2023/11/11 07:15:10;;;;;;;24.40;17.70;;;;;;;6.37;100.00;96898.93;106129;1286;59661;-90
2023/11/11 07:17:41;;;;;;;22.00;17.10;;;;;;;6.40;100.00;96899.02;106590;1286;72873;-90
2023/11/11 07:20:12;;;;;;;20.50;17.30;;;;;;;6.42;100.00;96891.58;106700;1285;73279;-88
2023/11/11 07:22:40;;;;;;;21.60;18.40;;;;;;;6.45;100.00;96882.48;106502;1285;71534;-89
2023/11/11 07:25:09;;;;;;;21.10;18.10;;;;;;;6.48;100.00;96879.22;106480;1286;59932;-89
2023/11/11 07:27:38;;;;;;;20.10;16.70;;;;;;;6.50;100.00;96877.82;106774;1286;60358;-89
2023/11/11 07:30:09;;;;;;;19.20;17.40;;;;;;;6.52;100.00;96875.37;106501;1285;71703;-90
2023/11/11 07:32:37;;;;;;;19.60;16.50;;;;;;;6.54;100.00;96869.86;106270;1286;73234;-90
2023/11/11 07:35:20;;;;;;;17.00;15.20;;;;;;;6.56;100.00;96872.23;106433;1285;71935;-89
2023/11/11 07:37:48;;;;;;;15.40;13.80;;;;;;;6.57;100.00;96872.48;106377;1286;59653;-91
2023/11/11 07:40:17;;;;;;;18.90;15.70;;;;;;;6.60;100.00;96872.77;106378;1286;60276;-89
2023/11/11 07:42:45;;;;;;;17.30;15.50;;;;;;;6.63;100.00;96874.20;106485;1286;72672;-89
2023/11/11 07:45:12;;;;;;;19.10;17.20;;;;;;;6.65;100.00;96877.17;106689;1286;74116;-90
2023/11/11 07:47:48;;;;;;;20.20;17.60;;;;;;;6.68;100.00;96879.78;106665;1286;71753;-88
2023/11/11 07:50:23;;;;;;;20.90;18.40;;;;;;;6.70;100.00;96880.38;106150;1285;59996;-90
2023/11/11 07:52:54;;;;;;;23.20;19.40;;;;;;;6.73;100.00;96883.39;106575;1285;60357;-89
2023/11/11 07:55:23;;;;;;;27.10;24.00;;;;;;;6.75;100.00;96881.94;106270;1285;74039;-90
2023/11/11 07:57:51;;;;;;;27.50;24.20;;;;;;;6.78;100.00;96879.72;106278;1284;73420;-89
2023/11/11 08:00:23;;;;;;;30.60;24.50;;;;;;;6.80;100.00;96882.77;106564;1285;72979;-88
2023/11/11 08:02:52;;;;;;;26.00;22.20;;;;;;;6.83;100.00;96882.39;106519;1285;59075;-89
2023/11/11 08:05:19;;;;;;;25.50;22.80;;;;;;;6.86;100.00;96880.74;106350;1284;60275;-88
2023/11/11 08:07:47;;;;;;;25.10;22.50;;;;;;;6.88;100.00;96876.66;106410;1286;75940;-88
2023/11/11 08:10:15;;;;;;;28.30;24.50;;;;;;;6.91;100.00;96880.73;106595;1285;73911;-86
2023/11/11 08:12:43;;;;;;;23.30;20.40;;;;;;;6.93;100.00;96877.73;106245;1284;72448;-87
2023/11/11 08:15:11;;;;;;;23.20;20.00;;;;;;;6.95;100.00;96869.39;106307;1286;60961;-86
2023/11/11 08:17:38;;;;;;;24.50;19.40;;;;;;;6.96;100.00;96866.41;106565;1285;59300;-88
2023/11/11 08:20:11;;;;;;;21.20;19.10;;;;;;;6.98;100.00;96871.61;106163;1285;74924;-90
2023/11/11 08:22:42;;;;;;;18.90;17.00;;;;;;;7.01;100.00;96873.12;106424;1285;74530;-90
2023/11/11 08:25:12;;;;;;;19.20;17.10;;;;;;;7.04;100.00;96869.48;106353;1285;72454;-91
2023/11/11 08:27:41;;;;;;;23.50;17.90;;;;;;;7.07;100.00;96874.08;106287;1284;60812;-91
2023/11/11 08:30:13;;;;;;;19.90;17.80;;;;;;;7.10;100.00;96876.91;106210;1285;60842;-90
2023/11/11 08:32:42;;;;;;;20.20;18.10;;;;;;;7.12;100.00;96874.73;106413;1285;71719;-89
2023/11/11 08:35:14;;;;;;;19.60;17.10;;;;;;;7.14;100.00;96868.34;106414;1285;74463;-89
2023/11/11 08:37:43;;;;;;;26.10;19.90;;;;;;;7.17;100.00;96868.09;106775;1285;71532;-88
2023/11/11 08:40:13;;;;;;;21.30;17.40;;;;;;;7.20;100.00;96867.70;106712;1285;61030;-90
2023/11/11 08:42:40;;;;;;;19.50;17.20;;;;;;;7.23;100.00;96865.10;106718;1285;59092;-88
2023/11/11 08:45:13;;;;;;;24.80;18.30;;;;;;;7.27;100.00;96864.53;106834;1285;74318;-89
2023/11/11 08:47:41;;;;;;;28.40;19.70;;;;;;;7.30;100.00;96864.46;106865;1285;74693;-87
2023/11/11 08:50:09;;;;;;;19.30;17.00;;;;;;;7.33;100.00;96867.78;106750;1285;71368;-88
2023/11/11 08:52:43;;;;;;;25.20;19.40;;;;;;;7.35;100.00;96863.36;106646;1286;59965;-88
2023/11/11 08:55:10;;;;;;;25.80;20.10;;;;;;;7.38;100.00;96859.54;106621;1285;59297;-89
2023/11/11 08:57:39;;;;;;;27.10;18.80;;;;;;;7.39;100.00;96858.16;106751;1285;72844;-89
2023/11/11 09:00:12;;;;;;;23.10;19.30;;;;;;;7.43;100.00;96852.87;106631;1284;74652;-90
2023/11/11 09:02:40;;;;;;;36.70;25.90;;;;;;;7.47;100.00;96850.80;106422;1284;71429;-88
2023/11/11 09:05:07;;;;;;;71.30;40.10;;;;;;;7.48;100.00;96848.16;106638;1285;60077;-88
2023/11/11 09:07:34;;;;;;;56.40;37.40;;;;;;;7.51;100.00;96850.48;106391;1285;60022;-87
2023/11/11 09:10:05;;;;;;;50.90;31.10;;;;;;;7.52;100.00;96845.88;106525;1285;72933;-87
2023/11/11 09:12:33;;;;;;;38.20;26.30;;;;;;;7.54;100.00;96845.57;106649;1285;73576;-87
2023/11/11 09:15:00;;;;;;;32.50;23.70;;;;;;;7.56;100.00;96845.58;106677;1285;71622;-87
2023/11/11 09:17:28;;;;;;;29.30;20.80;;;;;;;7.57;100.00;96849.41;106725;1285;59986;-88
2023/11/11 09:19:56;;;;;;;35.70;21.70;;;;;;;7.56;100.00;96850.34;106667;1285;59127;-88
2023/11/11 09:22:25;;;;;;;25.30;20.60;;;;;;;7.57;100.00;96851.04;106612;1285;72821;-88
2023/11/11 09:24:52;;;;;;;23.80;21.40;;;;;;;7.57;100.00;96846.91;106380;1286;73251;-88
2023/11/11 09:27:19;;;;;;;23.20;20.20;;;;;;;7.59;100.00;96842.31;106519;1285;73747;-87
2023/11/11 09:29:47;;;;;;;25.60;21.50;;;;;;;7.61;100.00;96838.23;106484;1289;60803;-89
2023/11/11 09:32:14;;;;;;;21.90;19.30;;;;;;;7.64;100.00;96832.45;106762;1285;60198;-88
2023/11/11 09:34:42;;;;;;;24.70;20.70;;;;;;;7.67;100.00;96829.04;106862;1285;74035;-88
2023/11/11 09:37:10;;;;;;;21.50;19.30;;;;;;;7.70;100.00;96822.73;106670;1289;73072;-89
2023/11/11 09:39:38;;;;;;;22.50;20.20;;;;;;;7.73;100.00;96820.48;106658;1286;71984;-88
2023/11/11 09:42:07;;;;;;;24.70;21.30;;;;;;;7.76;100.00;96820.79;106728;1284;60332;-88
2023/11/11 09:44:39;;;;;;;15.50;14.00;;;;;;;7.79;100.00;96818.39;106675;1285;58870;-88
2023/11/11 09:47:13;;;;;;;20.80;18.60;;;;;;;7.81;100.00;96814.14;106296;1286;74115;-88
2023/11/11 09:49:40;;;;;;;21.80;17.40;;;;;;;7.83;100.00;96807.59;106594;1284;73334;-89
2023/11/11 09:52:09;;;;;;;23.30;18.40;;;;;;;7.84;100.00;96807.46;106310;1285;71489;-89
2023/11/11 09:54:37;;;;;;;22.80;18.30;;;;;;;7.84;100.00;96801.92;106410;1285;60089;-89
2023/11/11 09:57:10;;;;;;;21.00;17.90;;;;;;;7.85;100.00;96795.42;106351;1285;60595;-89
2023/11/11 09:59:39;;;;;;;20.20;17.90;;;;;;;7.86;100.00;96785.20;106072;1285;72751;-88
2023/11/11 10:02:11;;;;;;;20.70;17.60;;;;;;;7.87;100.00;96777.27;106311;1286;75386;-89
2023/11/11 10:04:39;;;;;;;18.50;16.60;;;;;;;7.89;100.00;96778.33;106267;1286;72549;-89
2023/11/11 10:07:07;;;;;;;20.40;18.30;;;;;;;7.91;100.00;96779.60;106362;1285;61754;-89
2023/11/11 10:09:34;;;;;;;17.70;16.10;;;;;;;7.93;100.00;96779.30;106188;1284;60509;-88
2023/11/11 10:12:02;;;;;;;17.80;16.10;;;;;;;7.94;100.00;96778.48;106647;1286;72488;-89
2023/11/11 10:14:29;;;;;;;20.00;17.80;;;;;;;7.95;100.00;96775.70;106621;1286;73067;-86
2023/11/11 10:17:00;;;;;;;21.40;18.40;;;;;;;7.97;100.00;96771.64;106813;1286;71253;-88
2023/11/11 10:19:29;;;;;;;20.00;18.00;;;;;;;7.99;100.00;96767.92;106704;1286;59923;-88
2023/11/11 10:21:59;;;;;;;19.60;18.00;;;;;;;8.00;100.00;96764.67;106715;1285;60308;-88
2023/11/11 10:24:27;;;;;;;18.30;16.60;;;;;;;8.01;100.00;96760.80;106832;1283;73837;-90
2023/11/11 10:26:56;;;;;;;20.60;17.20;;;;;;;8.02;100.00;96764.63;106679;1283;74454;-85
2023/11/11 10:29:23;;;;;;;17.80;16.00;;;;;;;8.04;100.00;96763.20;106499;1283;72580;-85
2023/11/11 10:31:51;;;;;;;20.10;18.20;;;;;;;8.07;100.00;96766.89;106462;1283;60838;-85
2023/11/11 10:34:19;;;;;;;26.70;20.40;;;;;;;8.10;100.00;96761.30;106612;1285;59169;-86
2023/11/11 10:36:46;;;;;;;27.10;20.20;;;;;;;8.12;100.00;96756.61;106868;1285;72793;-84
2023/11/11 10:39:14;;;;;;;;;;;;;;;8.15;100.00;96759.44;106525;1283;73050;-84
2023/11/11 10:41:43;;;;;;;27.40;21.20;;;;;;;8.18;100.00;96760.08;106628;1283;73874;-90
2023/11/11 10:44:13;;;;;;;24.00;20.50;;;;;;;8.19;100.00;96753.86;106620;1283;61249;-83
2023/11/11 10:46:40;;;;;;;19.80;17.80;;;;;;;8.23;100.00;96758.54;106618;1283;60265;-84
2023/11/11 10:49:10;;;;;;;23.00;20.70;;;;;;;8.26;100.00;96757.06;106678;1283;74075;-86
2023/11/11 10:51:37;;;;;;;21.60;19.30;;;;;;;8.28;100.00;96759.48;106474;1283;75774;-84
2023/11/11 10:54:05;;;;;;;21.30;19.20;;;;;;;8.30;100.00;96758.80;106455;1283;72358;-85
2023/11/11 10:56:33;;;;;;;28.70;25.60;;;;;;;8.32;100.00;96758.23;106432;1283;61380;-85
2023/11/11 10:59:04;;;;;;;25.00;22.40;;;;;;;8.36;100.00;96760.72;106633;1283;60238;-85
2023/11/11 11:01:35;;;;;;;24.50;20.20;;;;;;;8.38;100.00;96753.77;106480;1286;72791;-81
2023/11/11 11:04:05;;;;;;;26.20;22.60;;;;;;;8.39;100.00;96759.65;106736;1283;74813;-80
2023/11/11 11:06:55;;;;;;;22.20;20.20;;;;;;;8.40;100.00;96757.66;106692;1283;72180;-81
2023/11/11 11:09:42;;;;;;;20.80;18.80;;;;;;;8.40;100.00;96757.30;106490;1283;59852;-81
2023/11/11 11:12:40;;;;;;;20.60;18.40;;;;;;;8.41;100.00;96756.86;106471;1283;60227;-82
2023/11/11 11:15:13;;;;;;;24.20;18.70;;;;;;;8.41;100.00;96755.21;106359;1286;73655;-82
2023/11/11 11:17:43;;;;;;;17.90;15.70;;;;;;;8.41;100.00;96759.27;106597;1283;73630;-82